Time;durP1;ratioP1;P1;durP2;ratioP2;P2;SDS_P1;SDS_P2;PMS_P1;PMS_P2;Temp;Humidity;BMP_temperature;BMP_pressure;BME280_temperature;BME280_humidity;BME280_pressure;Samples;Min_cycle;Max_cycle;Signal;HPM_P1;HPM_P2
2022/01/22 00:00:40;;;;;;;0.00;0.00;;;;;;;;;;5007751;28;20302;-71
2022/01/22 00:03:07;;;;;;;0.00;0.00;;;;;;;;;;5004000;28;20228;-71
2022/01/22 00:05:36;;;;;;;0.00;0.00;;;;;;;;;;5009785;28;20197;-70
2022/01/22 00:08:04;;;;;;;0.00;0.00;;;;;;;;;;5008605;28;20212;-70
2022/01/22 00:10:32;;;;;;;0.00;0.00;;;;;;;;;;5006902;28;20205;-70
2022/01/22 00:15:50;;;;;;;0.00;0.00;;;;;;;;;;5005362;28;20224;-70
2022/01/22 00:18:17;;;;;;;0.00;0.00;;;;;;;;;;5008193;28;20201;-70
2022/01/22 00:20:47;;;;;;;0.00;0.00;;;;;;;;;;5004538;28;20910;-70
2022/01/22 00:23:19;;;;;;;0.00;0.00;;;;;;;;;;5004640;28;20652;-70
2022/01/22 00:25:46;;;;;;;0.00;0.00;;;;;;;;;;5003169;28;20287;-70
2022/01/22 00:28:14;;;;;;;0.00;0.00;;;;;;;;;;5008527;28;20212;-70
2022/01/22 00:30:42;;;;;;;0.00;0.00;;;;;;;;;;5005299;28;20800;-70
2022/01/22 00:33:10;;;;;;;0.33;0.33;;;;;;;;;;5006640;28;20596;-69
2022/01/22 00:35:38;;;;;;;0.83;0.83;;;;;;;;;;5005897;28;20203;-70
2022/01/22 00:38:06;;;;;;;0.10;0.10;;;;;;;;;;5006145;28;20208;-70
2022/01/22 00:40:34;;;;;;;0.10;0.10;;;;;;;;;;5006739;28;20692;-70
2022/01/22 00:43:01;;;;;;;0.77;0.77;;;;;;;;;;5004864;28;20731;-71
2022/01/22 00:45:29;;;;;;;0.00;0.00;;;;;;;;;;5002455;28;20205;-71
2022/01/22 00:47:56;;;;;;;0.00;0.00;;;;;;;;;;5006447;28;20364;-69
2022/01/22 00:50:25;;;;;;;0.00;0.00;;;;;;;;;;5006460;28;22572;-71
2022/01/22 00:52:53;;;;;;;0.00;0.00;;;;;;;;;;5002319;28;20208;-72
2022/01/22 00:55:21;;;;;;;0.00;0.00;;;;;;;;;;5005824;28;21221;-71
2022/01/22 00:57:49;;;;;;;0.00;0.00;;;;;;;;;;5007136;28;20208;-71
2022/01/22 01:00:17;;;;;;;0.00;0.00;;;;;;;;;;5004103;28;20205;-71
2022/01/22 01:02:46;;;;;;;0.00;0.00;;;;;;;;;;5006651;28;20221;-71
2022/01/22 01:05:14;;;;;;;0.27;0.27;;;;;;;;;;5006964;28;20207;-71
2022/01/22 01:07:42;;;;;;;0.00;0.00;;;;;;;;;;5011999;28;20267;-70
2022/01/22 01:10:12;;;;;;;0.00;0.00;;;;;;;;;;5010499;28;20205;-70
2022/01/22 01:12:42;;;;;;;0.00;0.00;;;;;;;;;;5009955;28;20205;-70
2022/01/22 01:15:20;;;;;;;0.00;0.00;;;;;;;;;;5013425;28;20638;-70
2022/01/22 01:18:05;;;;;;;0.10;0.10;;;;;;;;;;5010943;28;20202;-70
2022/01/22 01:34:22;;;;;;;0.00;0.00;;;;;;;;;;5005763;28;20269;-70
2022/01/22 01:36:49;;;;;;;0.30;0.30;;;;;;;;;;5007735;28;20626;-70
2022/01/22 01:39:22;;;;;;;0.00;0.00;;;;;;;;;;5011546;28;20258;-70
2022/01/22 01:41:54;;;;;;;0.00;0.00;;;;;;;;;;5010504;28;20280;-70
2022/01/22 01:44:24;;;;;;;0.00;0.00;;;;;;;;;;5010919;28;20221;-70
2022/01/22 01:46:53;;;;;;;0.00;0.00;;;;;;;;;;5008426;28;20196;-70
2022/01/22 01:49:20;;;;;;;0.00;0.00;;;;;;;;;;5010880;28;20243;-70
2022/01/22 01:51:48;;;;;;;0.00;0.00;;;;;;;;;;5006876;28;20204;-70
2022/01/22 01:54:30;;;;;;;0.00;0.00;;;;;;;;;;5009704;28;20681;-71
2022/01/22 01:59:45;;;;;;;0.00;0.00;;;;;;;;;;5007763;28;20605;-70
2022/01/22 02:02:13;;;;;;;0.00;0.00;;;;;;;;;;5010929;28;20205;-70
2022/01/22 02:04:41;;;;;;;0.00;0.00;;;;;;;;;;5011043;28;20264;-71
2022/01/22 02:07:08;;;;;;;0.13;0.13;;;;;;;;;;5007323;28;20274;-70
2022/01/22 02:09:36;;;;;;;2.63;2.13;;;;;;;;;;5007604;28;20509;-70
2022/01/22 02:12:09;;;;;;;0.57;0.57;;;;;;;;;;5007260;28;20662;-70
2022/01/22 02:25:42;;;;;;;0.00;0.00;;;;;;;;;;5009677;28;20222;-70
2022/01/22 02:28:11;;;;;;;0.27;0.27;;;;;;;;;;5009189;28;20211;-71
2022/01/22 02:30:50;;;;;;;0.00;0.00;;;;;;;;;;5009518;28;20620;-70
2022/01/22 02:33:35;;;;;;;0.00;0.00;;;;;;;;;;5008019;28;20276;-71
2022/01/22 02:36:12;;;;;;;0.00;0.00;;;;;;;;;;5010010;28;20589;-71
2022/01/22 02:38:50;;;;;;;0.00;0.00;;;;;;;;;;5006148;28;20197;-70
2022/01/22 02:41:20;;;;;;;0.00;0.00;;;;;;;;;;5012125;28;20212;-71
2022/01/22 02:43:47;;;;;;;0.00;0.00;;;;;;;;;;5007525;28;20252;-70
2022/01/22 02:46:17;;;;;;;0.60;0.60;;;;;;;;;;5008934;28;20201;-70
2022/01/22 02:48:44;;;;;;;0.00;0.00;;;;;;;;;;5009100;28;20263;-71
2022/01/22 02:51:12;;;;;;;0.00;0.00;;;;;;;;;;5010306;28;20201;-72
2022/01/22 02:53:39;;;;;;;0.93;0.93;;;;;;;;;;5009599;28;20224;-71
2022/01/22 02:56:08;;;;;;;0.00;0.00;;;;;;;;;;5011812;28;20201;-71
2022/01/22 02:58:36;;;;;;;0.00;0.00;;;;;;;;;;5009114;28;20204;-71
2022/01/22 03:01:03;;;;;;;0.20;0.20;;;;;;;;;;5009881;28;20284;-71
2022/01/22 03:03:30;;;;;;;0.10;0.10;;;;;;;;;;5008228;28;20276;-70
2022/01/22 03:05:58;;;;;;;0.13;0.13;;;;;;;;;;5010696;28;20193;-71
2022/01/22 03:08:28;;;;;;;0.00;0.00;;;;;;;;;;5007727;28;20204;-70
2022/01/22 03:10:55;;;;;;;0.00;0.00;;;;;;;;;;5011996;28;20208;-70
2022/01/22 03:14:07;;;;;;;0.00;0.00;;;;;;;;;;5008892;28;20686;-70
2022/01/22 03:16:35;;;;;;;0.00;0.00;;;;;;;;;;5008941;28;20276;-70
2022/01/22 03:19:08;;;;;;;0.00;0.00;;;;;;;;;;5009272;28;20662;-70
2022/01/22 03:21:40;;;;;;;0.00;0.00;;;;;;;;;;5008945;28;20281;-70
2022/01/22 03:29:41;;;;;;;0.00;0.00;;;;;;;;;;5010314;28;20207;-70
2022/01/22 03:32:10;;;;;;;0.00;0.00;;;;;;;;;;5009954;28;20290;-71
2022/01/22 03:34:42;;;;;;;0.00;0.00;;;;;;;;;;5006676;28;20200;-71
2022/01/22 03:37:10;;;;;;;0.00;0.00;;;;;;;;;;5006044;28;20683;-71
2022/01/22 03:39:37;;;;;;;0.00;0.00;;;;;;;;;;5006925;28;20208;-70
2022/01/22 03:42:05;;;;;;;0.00;0.00;;;;;;;;;;5013067;28;20287;-71
2022/01/22 03:44:32;;;;;;;0.00;0.00;;;;;;;;;;5012769;28;20709;-71
2022/01/22 03:47:01;;;;;;;0.00;0.00;;;;;;;;;;5010368;28;20600;-69
2022/01/22 03:49:28;;;;;;;0.00;0.00;;;;;;;;;;5012507;28;20263;-72
2022/01/22 03:51:56;;;;;;;1.37;1.37;;;;;;;;;;5010294;28;20205;-71
2022/01/22 03:54:23;;;;;;;0.00;0.00;;;;;;;;;;5011491;28;20220;-71
2022/01/22 03:56:52;;;;;;;0.10;0.10;;;;;;;;;;5010518;28;20197;-71
2022/01/22 03:59:19;;;;;;;0.00;0.00;;;;;;;;;;5012697;28;20193;-71
2022/01/22 04:04:48;;;;;;;0.00;0.00;;;;;;;;;;5011799;28;20220;-70
2022/01/22 04:10:08;;;;;;;0.00;0.00;;;;;;;;;;5012853;28;20227;-70
2022/01/22 04:12:44;;;;;;;0.00;0.00;;;;;;;;;;5011892;28;20197;-71
2022/01/22 04:15:14;;;;;;;0.00;0.00;;;;;;;;;;5010911;28;20220;-70
2022/01/22 04:26:01;;;;;;;0.00;0.00;;;;;;;;;;5011572;28;20600;-70
2022/01/22 04:28:28;;;;;;;0.00;0.00;;;;;;;;;;5016869;28;20204;-70
2022/01/22 04:30:55;;;;;;;1.90;1.87;;;;;;;;;;5010393;28;20193;-70
2022/01/22 04:33:23;;;;;;;0.00;0.00;;;;;;;;;;5013417;28;20208;-71
2022/01/22 04:35:51;;;;;;;0.00;0.00;;;;;;;;;;5011526;28;20208;-71
2022/01/22 04:38:19;;;;;;;0.83;0.83;;;;;;;;;;5010817;28;20197;-70
2022/01/22 04:40:46;;;;;;;0.50;0.50;;;;;;;;;;5012594;28;20263;-71
2022/01/22 04:43:13;;;;;;;0.00;0.00;;;;;;;;;;5011384;28;20480;-71
2022/01/22 04:45:51;;;;;;;0.10;0.10;;;;;;;;;;5011491;28;20232;-70
2022/01/22 04:48:41;;;;;;;0.93;0.67;;;;;;;;;;5007783;28;20200;-71
2022/01/22 04:56:40;;;;;;;0.23;0.23;;;;;;;;;;5009251;28;20269;-71
2022/01/22 04:59:07;;;;;;;0.80;0.80;;;;;;;;;;5008500;28;20211;-70
2022/01/22 05:01:35;;;;;;;0.27;0.27;;;;;;;;;;5009376;28;20197;-71
2022/01/22 05:04:02;;;;;;;1.13;0.80;;;;;;;;;;5011938;28;20234;-71
2022/01/22 05:06:31;;;;;;;0.30;0.30;;;;;;;;;;5010894;28;20213;-71
2022/01/22 05:08:58;;;;;;;0.50;0.50;;;;;;;;;;5013712;28;20200;-70
2022/01/22 05:11:26;;;;;;;1.00;1.00;;;;;;;;;;5011200;28;20555;-70
2022/01/22 05:13:53;;;;;;;0.30;0.30;;;;;;;;;;5010432;28;20193;-70
2022/01/22 05:16:21;;;;;;;2.37;1.60;;;;;;;;;;5010485;28;20201;-70
2022/01/22 05:18:54;;;;;;;1.03;1.03;;;;;;;;;;5009589;28;20236;-69
2022/01/22 05:21:22;;;;;;;0.50;0.50;;;;;;;;;;5008844;28;20249;-70
2022/01/22 05:23:53;;;;;;;0.53;0.50;;;;;;;;;;5011276;28;20718;-70
2022/01/22 05:26:45;;;;;;;1.20;1.10;;;;;;;;;;5010927;28;20204;-70
2022/01/22 05:32:24;;;;;;;0.20;0.20;;;;;;;;;;5004762;28;20209;-71
2022/01/22 05:37:45;;;;;;;0.00;0.00;;;;;;;;;;4996240;28;20215;-70
2022/01/22 05:40:14;;;;;;;0.90;0.90;;;;;;;;;;5005409;28;20201;-71
2022/01/22 05:42:41;;;;;;;1.70;0.77;;;;;;;;;;5003675;28;20205;-70
2022/01/22 05:45:09;;;;;;;2.07;1.93;;;;;;;;;;5003580;28;20633;-70
2022/01/22 05:47:36;;;;;;;0.10;0.10;;;;;;;;;;5006158;28;20235;-71
2022/01/22 05:50:08;;;;;;;1.90;0.77;;;;;;;;;;5005258;28;20566;-71
2022/01/22 05:52:43;;;;;;;0.10;0.10;;;;;;;;;;5006893;28;20740;-70
2022/01/22 05:55:42;;;;;;;3.57;1.73;;;;;;;;;;5003390;28;20204;-71
2022/01/22 06:00:56;;;;;;;1.33;0.73;;;;;;;;;;5004310;28;20220;-70
2022/01/22 06:03:24;;;;;;;1.03;0.97;;;;;;;;;;5006012;28;20208;-70
2022/01/22 06:05:51;;;;;;;0.00;0.00;;;;;;;;;;5006165;28;20705;-71
2022/01/22 06:08:19;;;;;;;0.73;0.73;;;;;;;;;;5004569;28;20200;-70
2022/01/22 06:10:53;;;;;;;1.90;1.50;;;;;;;;;;5004805;28;20203;-70
2022/01/22 06:13:29;;;;;;;0.53;0.53;;;;;;;;;;5002851;28;20295;-71
2022/01/22 06:15:56;;;;;;;2.53;1.63;;;;;;;;;;5003358;28;20197;-71
2022/01/22 06:18:24;;;;;;;0.57;0.57;;;;;;;;;;5003532;28;20201;-70
2022/01/22 06:20:51;;;;;;;1.60;0.93;;;;;;;;;;5004842;28;20231;-70
2022/01/22 06:23:18;;;;;;;2.33;1.47;;;;;;;;;;5004383;28;20193;-70
2022/01/22 06:25:46;;;;;;;0.33;0.33;;;;;;;;;;5003376;28;20241;-71
2022/01/22 06:28:13;;;;;;;0.23;0.23;;;;;;;;;;5007057;28;20454;-70
2022/01/22 06:30:44;;;;;;;0.00;0.00;;;;;;;;;;5003513;28;20204;-71
2022/01/22 06:33:11;;;;;;;0.10;0.10;;;;;;;;;;5005193;28;20201;-71
2022/01/22 06:35:39;;;;;;;1.13;1.13;;;;;;;;;;5003328;28;20209;-70
2022/01/22 06:38:08;;;;;;;6.23;2.83;;;;;;;;;;5002917;28;20205;-71
2022/01/22 06:43:20;;;;;;;0.73;0.73;;;;;;;;;;5002342;28;20204;-70
2022/01/22 06:45:49;;;;;;;0.43;0.43;;;;;;;;;;5008115;28;20598;-70
2022/01/22 06:48:16;;;;;;;2.47;1.73;;;;;;;;;;5011881;28;20203;-70
2022/01/22 06:50:44;;;;;;;1.47;1.43;;;;;;;;;;5010730;28;20848;-70
2022/01/22 06:53:11;;;;;;;0.13;0.13;;;;;;;;;;5007673;28;20201;-70
2022/01/22 06:55:42;;;;;;;0.67;0.67;;;;;;;;;;5008787;28;20208;-70
2022/01/22 06:58:09;;;;;;;2.90;1.33;;;;;;;;;;5010979;28;20196;-70
2022/01/22 07:00:36;;;;;;;2.47;1.47;;;;;;;;;;5008828;28;20860;-70
2022/01/22 07:03:06;;;;;;;0.60;0.60;;;;;;;;;;5011262;28;20197;-70
2022/01/22 07:05:33;;;;;;;0.50;0.50;;;;;;;;;;5010110;28;20221;-70
2022/01/22 07:08:01;;;;;;;1.00;1.00;;;;;;;;;;5010281;28;20349;-70
2022/01/22 07:10:28;;;;;;;0.03;0.03;;;;;;;;;;5006573;28;20699;-70
2022/01/22 07:12:55;;;;;;;0.00;0.00;;;;;;;;;;5009220;28;20200;-70
2022/01/22 07:15:22;;;;;;;0.30;0.30;;;;;;;;;;5009536;28;20680;-70
2022/01/22 07:17:50;;;;;;;0.20;0.20;;;;;;;;;;5013726;28;20201;-70
2022/01/22 07:20:26;;;;;;;0.00;0.00;;;;;;;;;;5014554;28;20735;-70
2022/01/22 07:23:00;;;;;;;1.53;1.03;;;;;;;;;;5014710;28;20291;-70
2022/01/22 07:25:28;;;;;;;1.80;1.70;;;;;;;;;;5017580;28;20648;-70
2022/01/22 07:27:55;;;;;;;0.17;0.17;;;;;;;;;;5011957;28;20212;-71
2022/01/22 07:30:22;;;;;;;0.67;0.63;;;;;;;;;;5008671;28;20673;-70
2022/01/22 07:32:50;;;;;;;0.13;0.13;;;;;;;;;;5004995;28;20259;-69
2022/01/22 07:35:19;;;;;;;0.47;0.47;;;;;;;;;;5006375;28;20196;-69
2022/01/22 07:37:46;;;;;;;1.60;1.03;;;;;;;;;;5010831;28;20295;-70
2022/01/22 07:40:14;;;;;;;0.17;0.17;;;;;;;;;;5004500;28;21719;-70
2022/01/22 07:42:41;;;;;;;2.00;1.40;;;;;;;;;;5007503;28;20503;-70
2022/01/22 07:45:10;;;;;;;5.50;1.03;;;;;;;;;;5005997;28;20223;-70
2022/01/22 07:47:37;;;;;;;0.20;0.20;;;;;;;;;;5006115;28;20208;-71
2022/01/22 07:50:05;;;;;;;3.30;1.97;;;;;;;;;;5000723;28;20713;-69
2022/01/22 07:52:34;;;;;;;1.83;1.73;;;;;;;;;;5004527;28;20200;-71
2022/01/22 07:55:03;;;;;;;2.43;2.23;;;;;;;;;;5001595;28;20199;-71
2022/01/22 07:57:30;;;;;;;0.23;0.23;;;;;;;;;;5006147;28;20209;-70
2022/01/22 07:59:57;;;;;;;1.20;1.20;;;;;;;;;;5006638;28;20908;-70
2022/01/22 08:02:24;;;;;;;1.63;1.60;;;;;;;;;;5006108;28;20209;-71
2022/01/22 08:04:52;;;;;;;1.93;1.60;;;;;;;;;;5007481;28;20234;-70
2022/01/22 08:07:19;;;;;;;1.30;1.13;;;;;;;;;;5006053;28;21534;-68
2022/01/22 08:09:50;;;;;;;1.47;1.33;;;;;;;;;;5005235;28;20212;-70
2022/01/22 08:12:18;;;;;;;1.13;1.13;;;;;;;;;;5006571;28;20214;-74
2022/01/22 08:14:45;;;;;;;0.77;0.67;;;;;;;;;;5005863;28;20232;-70
2022/01/22 08:17:13;;;;;;;1.40;1.07;;;;;;;;;;5012207;28;20193;-70
2022/01/22 08:19:40;;;;;;;2.57;1.27;;;;;;;;;;5025731;28;20238;-71
2022/01/22 08:22:07;;;;;;;3.90;0.73;;;;;;;;;;5019659;28;20207;-70
2022/01/22 08:24:35;;;;;;;1.23;1.23;;;;;;;;;;5020635;28;20259;-71
2022/01/22 08:27:14;;;;;;;0.40;0.40;;;;;;;;;;5026321;28;20193;-71
2022/01/22 08:29:42;;;;;;;0.00;0.00;;;;;;;;;;5023023;28;20233;-71
2022/01/22 08:32:31;;;;;;;1.43;1.40;;;;;;;;;;5022905;28;20224;-71
2022/01/22 08:37:44;;;;;;;2.80;2.33;;;;;;;;;;5018156;28;20655;-71
2022/01/22 08:40:12;;;;;;;0.20;0.20;;;;;;;;;;5018845;28;20207;-71
2022/01/22 08:42:41;;;;;;;1.57;1.47;;;;;;;;;;5019434;28;20204;-71
2022/01/22 08:45:09;;;;;;;3.10;2.17;;;;;;;;;;5011467;28;20236;-71
2022/01/22 08:47:36;;;;;;;0.40;0.40;;;;;;;;;;5013130;28;20246;-72
2022/01/22 08:50:04;;;;;;;1.50;1.43;;;;;;;;;;5007621;28;20743;-71
2022/01/22 08:52:35;;;;;;;0.97;0.97;;;;;;;;;;5012807;28;20228;-71
2022/01/22 08:55:02;;;;;;;0.57;0.57;;;;;;;;;;5014579;28;20801;-71
2022/01/22 08:57:30;;;;;;;0.53;0.27;;;;;;;;;;5010131;28;20670;-71
2022/01/22 08:59:59;;;;;;;0.30;0.30;;;;;;;;;;5006759;28;20208;-72
2022/01/22 09:02:27;;;;;;;0.63;0.63;;;;;;;;;;5002187;28;20198;-70
2022/01/22 09:04:55;;;;;;;1.00;0.77;;;;;;;;;;5002174;28;20288;-71
2022/01/22 09:07:22;;;;;;;1.03;0.97;;;;;;;;;;4997544;28;20379;-70
2022/01/22 09:09:50;;;;;;;1.53;1.50;;;;;;;;;;5002297;28;20196;-71
2022/01/22 09:12:18;;;;;;;0.40;0.30;;;;;;;;;;5000197;28;20252;-71
2022/01/22 09:14:46;;;;;;;0.93;0.93;;;;;;;;;;5001373;28;20340;-71
2022/01/22 09:17:15;;;;;;;0.27;0.27;;;;;;;;;;5002417;28;20585;-71
2022/01/22 09:19:46;;;;;;;1.13;1.00;;;;;;;;;;5001686;28;20993;-72
2022/01/22 09:22:13;;;;;;;0.00;0.00;;;;;;;;;;5005386;28;20235;-72
2022/01/22 09:24:41;;;;;;;2.57;1.83;;;;;;;;;;5008493;28;22136;-72
2022/01/22 09:27:08;;;;;;;0.67;0.67;;;;;;;;;;5000285;28;20704;-72
2022/01/22 09:29:36;;;;;;;0.67;0.47;;;;;;;;;;5014905;28;20205;-71
2022/01/22 09:32:04;;;;;;;6.70;2.37;;;;;;;;;;5018975;28;20201;-74
2022/01/22 09:34:33;;;;;;;0.37;0.30;;;;;;;;;;5016242;28;20200;-73
2022/01/22 09:37:00;;;;;;;0.40;0.40;;;;;;;;;;5013772;28;20270;-76
2022/01/22 09:39:27;;;;;;;1.57;1.27;;;;;;;;;;5015273;28;20581;-75
2022/01/22 09:41:56;;;;;;;3.43;3.00;;;;;;;;;;5011688;28;20212;-70
2022/01/22 09:44:23;;;;;;;2.13;1.83;;;;;;;;;;5009611;28;20196;-68
2022/01/22 09:46:52;;;;;;;1.37;1.27;;;;;;;;;;5008506;28;20991;-71
2022/01/22 09:49:19;;;;;;;0.77;0.77;;;;;;;;;;5007849;28;20194;-71
2022/01/22 09:51:48;;;;;;;1.13;1.13;;;;;;;;;;5009264;28;20198;-74
2022/01/22 09:54:15;;;;;;;0.13;0.13;;;;;;;;;;5009595;28;20213;-71
2022/01/22 09:56:44;;;;;;;2.37;1.40;;;;;;;;;;5006336;28;20201;-73
2022/01/22 09:59:12;;;;;;;0.97;0.97;;;;;;;;;;5007296;28;20200;-71
2022/01/22 10:01:40;;;;;;;0.00;0.00;;;;;;;;;;5021782;28;20212;-71
2022/01/22 10:04:08;;;;;;;2.27;2.17;;;;;;;;;;5020949;28;20589;-71
2022/01/22 10:06:46;;;;;;;0.50;0.50;;;;;;;;;;5016917;28;20228;-72
2022/01/22 10:09:25;;;;;;;0.20;0.20;;;;;;;;;;5018212;28;20203;-72
2022/01/22 10:12:08;;;;;;;0.47;0.47;;;;;;;;;;5019804;28;20203;-69
2022/01/22 10:14:35;;;;;;;1.40;1.40;;;;;;;;;;5018423;28;20296;-71
2022/01/22 10:17:02;;;;;;;3.80;3.60;;;;;;;;;;5025152;28;20197;-71
2022/01/22 10:19:30;;;;;;;2.67;1.23;;;;;;;;;;5025595;28;20236;-71
2022/01/22 10:21:58;;;;;;;1.37;0.83;;;;;;;;;;5026116;28;20208;-70
2022/01/22 10:24:31;;;;;;;1.70;1.43;;;;;;;;;;5025738;28;20201;-71
2022/01/22 10:27:23;;;;;;;0.10;0.10;;;;;;;;;;5023364;28;21170;-71
2022/01/22 10:29:53;;;;;;;0.10;0.10;;;;;;;;;;5023496;28;20197;-72
2022/01/22 10:32:24;;;;;;;0.63;0.63;;;;;;;;;;5022186;28;20255;-72
2022/01/22 10:35:03;;;;;;;0.53;0.53;;;;;;;;;;5015808;28;20209;-78
2022/01/22 10:37:30;;;;;;;1.30;1.20;;;;;;;;;;5018692;28;20215;-78
2022/01/22 10:40:12;;;;;;;0.87;0.87;;;;;;;;;;5017582;28;20208;-71
2022/01/22 10:42:41;;;;;;;1.20;0.97;;;;;;;;;;5023031;28;20596;-72
2022/01/22 10:45:11;;;;;;;1.23;0.87;;;;;;;;;;5024280;28;20223;-71
2022/01/22 10:47:38;;;;;;;0.83;0.50;;;;;;;;;;5022551;28;20205;-72
2022/01/22 10:50:17;;;;;;;1.00;1.00;;;;;;;;;;5024943;28;20831;-71
2022/01/22 10:52:47;;;;;;;2.77;2.57;;;;;;;;;;5025563;28;20218;-72
2022/01/22 10:55:15;;;;;;;6.43;2.27;;;;;;;;;;5024819;28;20197;-71
2022/01/22 10:58:03;;;;;;;0.47;0.33;;;;;;;;;;5021355;28;20703;-71
2022/01/22 11:00:31;;;;;;;0.20;0.20;;;;;;;;;;5019113;28;20211;-72
2022/01/22 11:02:58;;;;;;;1.20;1.07;;;;;;;;;;5013255;28;20197;-70
2022/01/22 11:05:36;;;;;;;1.53;0.97;;;;;;;;;;5015890;28;20267;-71
2022/01/22 11:08:09;;;;;;;1.33;1.23;;;;;;;;;;5024682;28;20196;-79
2022/01/22 11:10:36;;;;;;;1.07;1.07;;;;;;;;;;5025038;28;20240;-71
2022/01/22 11:13:06;;;;;;;0.83;0.60;;;;;;;;;;5018420;28;20197;-71
2022/01/22 11:15:33;;;;;;;0.67;0.67;;;;;;;;;;5014563;28;20227;-71
2022/01/22 11:18:01;;;;;;;5.80;5.23;;;;;;;;;;5013042;28;20228;-76
2022/01/22 11:20:30;;;;;;;0.70;0.70;;;;;;;;;;5011148;28;20232;-75
2022/01/22 11:22:59;;;;;;;1.47;1.47;;;;;;;;;;5015648;28;20208;-70
2022/01/22 11:25:26;;;;;;;0.73;0.73;;;;;;;;;;5012456;28;20670;-72
2022/01/22 11:27:54;;;;;;;0.63;0.63;;;;;;;;;;5010596;28;20236;-78
2022/01/22 11:30:25;;;;;;;0.23;0.23;;;;;;;;;;5009489;28;20206;-76
2022/01/22 11:32:54;;;;;;;2.23;1.23;;;;;;;;;;5011274;28;20274;-77
2022/01/22 11:35:22;;;;;;;0.00;0.00;;;;;;;;;;5014252;28;20195;-72
2022/01/22 11:37:50;;;;;;;0.30;0.30;;;;;;;;;;5011563;28;20665;-71
2022/01/22 11:40:19;;;;;;;0.13;0.13;;;;;;;;;;5009921;28;20196;-71
2022/01/22 11:42:56;;;;;;;0.07;0.07;;;;;;;;;;5005119;28;20292;-71
2022/01/22 11:45:29;;;;;;;0.67;0.67;;;;;;;;;;5007061;28;20193;-71
2022/01/22 11:48:12;;;;;;;4.07;3.53;;;;;;;;;;5010609;28;20196;-70
2022/01/22 11:50:39;;;;;;;1.50;1.33;;;;;;;;;;5008339;28;20200;-71
2022/01/22 11:53:24;;;;;;;1.33;1.20;;;;;;;;;;5008272;28;20199;-71
2022/01/22 11:56:09;;;;;;;1.57;0.93;;;;;;;;;;5010587;28;20617;-71
2022/01/22 11:59:04;;;;;;;0.30;0.30;;;;;;;;;;5010970;28;20193;-72
2022/01/22 12:01:50;;;;;;;2.00;1.43;;;;;;;;;;5018164;28;20631;-70
2022/01/22 12:04:20;;;;;;;1.37;1.30;;;;;;;;;;5032783;28;20192;-71
2022/01/22 12:07:02;;;;;;;0.43;0.37;;;;;;;;;;5027020;28;20221;-71
2022/01/22 12:09:31;;;;;;;2.83;2.60;;;;;;;;;;5011928;28;20605;-71
2022/01/22 12:14:51;;;;;;;2.00;1.90;;;;;;;;;;5024842;28;20277;-72
2022/01/22 12:17:25;;;;;;;1.47;1.37;;;;;;;;;;5022086;28;20224;-71
2022/01/22 12:20:06;;;;;;;1.93;1.47;;;;;;;;;;5015203;28;20224;-70
2022/01/22 12:22:48;;;;;;;1.77;1.60;;;;;;;;;;5021634;28;20205;-71
2022/01/22 12:25:30;;;;;;;3.37;3.07;;;;;;;;;;5013837;28;20207;-71
2022/01/22 12:27:58;;;;;;;3.57;2.93;;;;;;;;;;5023556;28;20215;-71
2022/01/22 12:30:33;;;;;;;2.50;2.23;;;;;;;;;;5022585;28;20205;-71
2022/01/22 12:33:01;;;;;;;0.70;0.70;;;;;;;;;;5015941;28;20200;-71
2022/01/22 12:35:36;;;;;;;2.03;1.40;;;;;;;;;;5015985;28;20665;-71
2022/01/22 12:38:17;;;;;;;2.37;2.00;;;;;;;;;;5016530;28;20207;-71
2022/01/22 12:40:46;;;;;;;1.97;1.87;;;;;;;;;;5015837;28;20193;-71
2022/01/22 12:43:19;;;;;;;2.67;2.23;;;;;;;;;;5011245;28;20296;-70
2022/01/22 12:45:54;;;;;;;0.30;0.20;;;;;;;;;;5010801;28;20215;-70
2022/01/22 12:48:22;;;;;;;16.33;5.40;;;;;;;;;;5012996;28;20203;-70
2022/01/22 12:50:51;;;;;;;1.77;1.33;;;;;;;;;;5014726;28;20201;-70
2022/01/22 12:53:19;;;;;;;1.80;1.70;;;;;;;;;;5014589;28;20206;-70
2022/01/22 12:58:38;;;;;;;0.10;0.03;;;;;;;;;;5014077;28;20211;-72
2022/01/22 13:01:10;;;;;;;2.20;1.57;;;;;;;;;;5011493;28;20251;-71
2022/01/22 13:03:39;;;;;;;1.70;1.30;;;;;;;;;;5012805;28;20204;-70
2022/01/22 13:06:07;;;;;;;1.23;0.60;;;;;;;;;;5012726;28;20213;-71
2022/01/22 13:08:35;;;;;;;4.57;3.10;;;;;;;;;;5020177;28;20215;-72
2022/01/22 13:11:06;;;;;;;2.80;2.57;;;;;;;;;;5019948;28;20625;-71
2022/01/22 13:13:34;;;;;;;2.77;2.57;;;;;;;;;;5016497;28;20213;-70
2022/01/22 13:16:02;;;;;;;6.70;1.40;;;;;;;;;;5015198;28;20196;-72
2022/01/22 13:18:39;;;;;;;2.57;1.63;;;;;;;;;;5014618;28;20200;-71
2022/01/22 13:21:09;;;;;;;1.23;0.83;;;;;;;;;;5013112;28;20554;-70
2022/01/22 13:23:37;;;;;;;1.03;0.93;;;;;;;;;;5014486;28;20697;-68
2022/01/22 13:26:04;;;;;;;2.47;1.80;;;;;;;;;;5012798;28;20192;-68
2022/01/22 13:28:33;;;;;;;4.87;3.53;;;;;;;;;;5014459;28;20248;-69
2022/01/22 13:31:06;;;;;;;1.60;1.50;;;;;;;;;;5014961;28;20196;-72
2022/01/22 13:33:41;;;;;;;3.27;1.30;;;;;;;;;;5013202;28;20197;-71
2022/01/22 13:36:19;;;;;;;4.03;1.93;;;;;;;;;;5009125;28;20665;-72
2022/01/22 13:39:06;;;;;;;1.47;1.37;;;;;;;;;;5014024;28;20282;-66
2022/01/22 13:49:50;;;;;;;3.73;2.60;;;;;;;;;;5013865;28;20520;-71
2022/01/22 13:52:20;;;;;;;3.73;2.60;;;;;;;;;;5017442;28;20320;-70
2022/01/22 13:54:49;;;;;;;4.90;3.80;;;;;;;;;;5012694;28;20219;-70
2022/01/22 13:57:17;;;;;;;4.97;2.73;;;;;;;;;;5011292;28;20247;-70
2022/01/22 13:59:45;;;;;;;1.40;1.40;;;;;;;;;;5012824;28;20207;-69
2022/01/22 14:02:32;;;;;;;1.77;1.33;;;;;;;;;;5011609;28;20227;-70
2022/01/22 14:05:03;;;;;;;0.40;0.40;;;;;;;;;;5013253;28;20208;-69
2022/01/22 14:07:33;;;;;;;0.70;0.70;;;;;;;;;;5011341;28;20678;-67
2022/01/22 14:10:01;;;;;;;1.00;0.83;;;;;;;;;;5018681;28;20265;-69
2022/01/22 14:12:33;;;;;;;0.90;0.90;;;;;;;;;;5028555;28;20203;-69
2022/01/22 14:15:06;;;;;;;2.63;0.70;;;;;;;;;;5027849;28;20735;-72
2022/01/22 14:17:39;;;;;;;0.30;0.30;;;;;;;;;;5028282;28;20559;-74
2022/01/22 14:20:08;;;;;;;0.00;0.00;;;;;;;;;;5020288;28;20285;-77
2022/01/22 14:22:55;;;;;;;0.70;0.70;;;;;;;;;;5012833;28;20254;-76
2022/01/22 14:25:24;;;;;;;1.80;1.40;;;;;;;;;;5014164;28;20212;-72
2022/01/22 14:28:02;;;;;;;0.00;0.00;;;;;;;;;;5011165;28;20228;-72
2022/01/22 14:30:50;;;;;;;2.00;1.57;;;;;;;;;;5013189;28;20642;-72
2022/01/22 14:33:20;;;;;;;4.90;2.33;;;;;;;;;;5006819;28;20215;-72
2022/01/22 14:35:58;;;;;;;0.17;0.17;;;;;;;;;;5013723;28;20196;-69
2022/01/22 14:38:41;;;;;;;1.07;0.60;;;;;;;;;;5012540;28;20277;-71
2022/01/22 14:44:24;;;;;;;0.20;0.20;;;;;;;;;;5012200;28;20208;-72
2022/01/22 14:46:53;;;;;;;0.00;0.00;;;;;;;;;;5010408;28;20229;-72
2022/01/22 14:49:28;;;;;;;0.27;0.27;;;;;;;;;;5009401;28;20573;-72
2022/01/22 14:51:56;;;;;;;2.37;2.17;;;;;;;;;;5009116;28;20777;-72
2022/01/22 14:54:24;;;;;;;1.67;0.87;;;;;;;;;;5017242;28;20238;-72
2022/01/22 14:56:53;;;;;;;0.90;0.90;;;;;;;;;;5014609;28;20658;-72
2022/01/22 14:59:20;;;;;;;2.87;1.23;;;;;;;;;;5009185;28;20197;-72
2022/01/22 15:01:48;;;;;;;0.27;0.27;;;;;;;;;;5011125;28;20185;-71
2022/01/22 15:04:15;;;;;;;1.30;1.17;;;;;;;;;;5010041;28;20212;-71
2022/01/22 15:06:44;;;;;;;1.87;1.50;;;;;;;;;;5021857;28;20223;-71
2022/01/22 15:09:12;;;;;;;2.27;2.07;;;;;;;;;;5028766;28;20247;-71
2022/01/22 15:11:39;;;;;;;0.00;0.00;;;;;;;;;;5028569;28;20275;-70
2022/01/22 15:14:08;;;;;;;0.33;0.33;;;;;;;;;;5019675;28;20559;-71
2022/01/22 15:16:44;;;;;;;0.50;0.30;;;;;;;;;;5020261;28;20235;-71
2022/01/22 15:19:16;;;;;;;0.00;0.00;;;;;;;;;;5028565;28;20279;-72
2022/01/22 15:21:44;;;;;;;0.43;0.43;;;;;;;;;;5026996;28;20196;-72
2022/01/22 15:24:12;;;;;;;0.33;0.33;;;;;;;;;;5015221;28;20201;-72
2022/01/22 15:26:39;;;;;;;0.23;0.23;;;;;;;;;;5009090;28;20674;-71
2022/01/22 15:29:10;;;;;;;0.67;0.67;;;;;;;;;;5009405;28;20208;-71
2022/01/22 15:31:50;;;;;;;0.43;0.43;;;;;;;;;;5010366;28;20240;-72
2022/01/22 15:34:37;;;;;;;2.83;1.27;;;;;;;;;;5016098;28;20248;-71
2022/01/22 15:37:05;;;;;;;0.00;0.00;;;;;;;;;;5025641;28;20211;-71
2022/01/22 15:39:33;;;;;;;0.30;0.30;;;;;;;;;;5012923;28;20201;-72
2022/01/22 15:42:00;;;;;;;1.03;1.00;;;;;;;;;;5014070;28;20204;-71
2022/01/22 15:44:29;;;;;;;0.63;0.20;;;;;;;;;;5031433;28;20200;-71
2022/01/22 15:46:56;;;;;;;5.63;1.97;;;;;;;;;;5032527;28;20235;-72
2022/01/22 15:49:25;;;;;;;0.53;0.53;;;;;;;;;;5032442;28;20207;-72
2022/01/22 15:51:53;;;;;;;0.73;0.73;;;;;;;;;;5032046;28;20231;-72
2022/01/22 15:54:21;;;;;;;1.97;1.77;;;;;;;;;;5030457;28;20201;-72
2022/01/22 15:56:51;;;;;;;0.07;0.07;;;;;;;;;;5031715;28;20227;-72
2022/01/22 15:59:19;;;;;;;1.17;0.57;;;;;;;;;;5032182;28;20673;-72
2022/01/22 16:01:48;;;;;;;0.50;0.50;;;;;;;;;;5030421;28;20205;-71
2022/01/22 16:04:16;;;;;;;0.00;0.00;;;;;;;;;;5032129;28;20287;-71
2022/01/22 16:06:57;;;;;;;0.63;0.50;;;;;;;;;;5032097;28;20195;-72
2022/01/22 16:09:26;;;;;;;0.00;0.00;;;;;;;;;;5028906;28;20275;-71
2022/01/22 16:11:53;;;;;;;0.00;0.00;;;;;;;;;;5012617;28;20693;-72
2022/01/22 16:14:20;;;;;;;0.00;0.00;;;;;;;;;;5012180;28;20571;-71
2022/01/22 16:16:50;;;;;;;0.00;0.00;;;;;;;;;;5012331;28;20189;-71
2022/01/22 16:19:18;;;;;;;0.00;0.00;;;;;;;;;;5015054;28;20197;-72
2022/01/22 16:21:46;;;;;;;0.00;0.00;;;;;;;;;;5012410;28;20193;-72
2022/01/22 16:24:14;;;;;;;0.00;0.00;;;;;;;;;;5013049;28;20224;-72
2022/01/22 16:26:42;;;;;;;0.00;0.00;;;;;;;;;;5025748;28;20211;-72
2022/01/22 16:29:10;;;;;;;0.00;0.00;;;;;;;;;;5016526;28;20224;-72